KNDZ

Whiting Field NAS South Airport

Milton, Florida, USA
METAR KNDZ 160556Z 14003KT 10SM SCT012 SCT250 24/24 A3006 RMK AO2 SLP164 T02440244 10278 20244 403220222 58006 $
Observed Flight Rules
Aug-16 @ 05:56 UTC (20 minutes ago) Visual Flight Rules
Wind Visibility Clouds
140° at 3 knots 10 miles
  • Scattered at 1,200' AGL
  • Scattered at 25,000' AGL
Temperatures Readings
Current 24°C / 75°F
Dewpoint 24°C / 75°F
Humidity 100%
Altimeter 30.06" Hg
Pressure 1016.4 hPa
Elevation 54
METAR KNDZ 160556Z 14003KT 10SM SCT012 SCT250 24/24 A3006 RMK AO2 SLP164 T02440244 10278 20244 403220222 58006 $
Observed Flight Rules
Aug-16 @ 05:56 UTC
(20 minutes ago)
VFR
Wind Visibility
140° at 3 knots 10 miles
Clouds
  • Scattered at 1,200' AGL
  • Scattered at 25,000' AGL
Temperature Dewpoint
24°C / 75°F 24°C / 75°F
Humidity Altimeter Pressure
100% 30.06" Hg 1016.4 hPa